createdAt,value
2018-02-24T00:02:28.524Z,10.60
2018-02-24T00:04:56.272Z,10.70
2018-02-24T00:07:23.937Z,9.93
2018-02-24T00:09:51.812Z,10.70
2018-02-24T00:12:19.472Z,12.07
2018-02-24T00:14:47.320Z,11.70
2018-02-24T00:17:15.416Z,10.53
2018-02-24T00:19:42.981Z,11.50
2018-02-24T00:22:11.227Z,11.50
2018-02-24T00:24:38.861Z,11.23
2018-02-24T00:27:07.109Z,10.30
2018-02-24T00:29:34.781Z,9.60
2018-02-24T00:32:02.462Z,10.57
2018-02-24T00:34:30.806Z,11.57
2018-02-24T00:36:59.432Z,10.00
2018-02-24T00:39:27.821Z,9.90
2018-02-24T00:41:56.197Z,10.07
2018-02-24T00:44:24.436Z,9.53
2018-02-24T00:46:51.933Z,9.60
2018-02-24T00:49:20.175Z,10.40
2018-02-24T00:51:47.649Z,9.83
2018-02-24T00:54:15.142Z,8.50
2018-02-24T00:56:42.615Z,9.20
2018-02-24T00:59:10.138Z,9.00
2018-02-24T01:01:38.392Z,9.67
2018-02-24T01:04:05.870Z,9.10
2018-02-24T01:06:34.110Z,8.47
2018-02-24T01:09:01.602Z,9.17
2018-02-24T01:11:29.835Z,8.70
2018-02-24T01:13:57.306Z,8.70
2018-02-24T01:16:24.846Z,9.77
2018-02-24T01:18:52.319Z,9.37
2018-02-24T01:21:19.792Z,10.73
2018-02-24T01:23:47.281Z,10.50
2018-02-24T01:26:15.528Z,11.00
2018-02-24T01:28:42.996Z,11.53
2018-02-24T01:31:10.489Z,10.77
2018-02-24T01:33:37.963Z,11.13
2018-02-24T01:36:05.441Z,11.10
2018-02-24T01:38:32.934Z,11.33
2018-02-24T01:41:00.404Z,11.53
2018-02-24T01:43:28.689Z,11.27
2018-02-24T01:45:56.155Z,11.60
2018-02-24T01:48:24.392Z,11.90
2018-02-24T01:50:51.945Z,12.10
2018-02-24T01:53:19.440Z,11.60
2018-02-24T01:55:47.688Z,13.37
2018-02-24T01:58:15.168Z,14.52
2018-02-24T02:00:43.431Z,15.63
2018-02-24T02:03:10.913Z,14.40
2018-02-24T02:05:39.173Z,13.33
2018-02-24T02:08:06.640Z,14.20
2018-02-24T02:10:34.885Z,11.33
2018-02-24T02:13:03.152Z,13.63
2018-02-24T02:15:30.633Z,11.90
2018-02-24T02:17:58.107Z,11.53
2018-02-24T02:20:25.605Z,12.10
2018-02-24T02:22:53.076Z,12.03
2018-02-24T02:25:20.548Z,13.80
2018-02-24T02:27:48.053Z,15.40
2018-02-24T02:30:16.298Z,14.90
2018-02-24T02:32:43.785Z,16.55
2018-02-24T02:35:12.063Z,15.43
2018-02-24T02:37:40.312Z,15.73
2018-02-24T02:40:07.789Z,14.68
2018-02-24T02:42:35.304Z,14.18
2018-02-24T02:45:02.781Z,13.53
2018-02-24T02:47:30.259Z,14.70
2018-02-24T02:49:57.773Z,14.73
2018-02-24T02:52:25.253Z,15.07
2018-02-24T02:54:52.729Z,15.45
2018-02-24T02:57:20.223Z,15.47
2018-02-24T02:59:48.491Z,14.35
2018-02-24T03:02:15.958Z,16.00
2018-02-24T03:04:44.219Z,15.80
2018-02-24T03:07:11.690Z,15.40
2018-02-24T03:09:39.947Z,16.50
2018-02-24T03:12:07.444Z,17.37
2018-02-24T03:14:34.916Z,17.20
2018-02-24T03:17:02.404Z,17.62
2018-02-24T03:19:29.890Z,17.10
2018-02-24T03:21:58.151Z,18.12
2018-02-24T03:24:25.648Z,17.70
2018-02-24T03:26:53.126Z,17.98
2018-02-24T03:29:21.368Z,18.47
2018-02-24T03:31:49.633Z,17.87
2018-02-24T03:34:17.108Z,18.50
2018-02-24T03:36:45.352Z,17.23
2018-02-24T03:39:12.848Z,18.12
2018-02-24T03:41:41.101Z,18.25
2018-02-24T03:44:08.572Z,19.48
2018-02-24T03:46:36.829Z,18.10
2018-02-24T03:49:04.305Z,18.67
2018-02-24T03:51:32.580Z,19.45
2018-02-24T03:54:00.828Z,17.90
2018-02-24T03:56:28.312Z,17.25
2018-02-24T03:58:55.795Z,17.00
2018-02-24T04:01:24.054Z,14.97
2018-02-24T04:03:52.308Z,16.03
2018-02-24T04:06:19.784Z,15.97
2018-02-24T04:08:47.266Z,15.33
2018-02-24T04:11:15.516Z,15.47
2018-02-24T04:13:42.989Z,16.20
2018-02-24T04:16:11.248Z,16.70
2018-02-24T04:18:38.724Z,16.00
2018-02-24T04:21:06.964Z,18.47
2018-02-24T04:23:34.457Z,17.87
2018-02-24T04:26:02.697Z,18.30
2018-02-24T04:28:30.171Z,18.60
2018-02-24T04:30:57.648Z,18.47
2018-02-24T04:33:25.893Z,20.10
2018-02-24T04:35:53.388Z,18.70
2018-02-24T04:38:21.625Z,17.37
2018-02-24T04:40:49.102Z,20.10
2018-02-24T04:43:16.592Z,18.10
2018-02-24T04:45:44.832Z,18.90
2018-02-24T04:48:12.325Z,18.40
2018-02-24T04:50:40.565Z,19.03
2018-02-24T04:53:08.041Z,18.97
2018-02-24T04:55:35.532Z,18.90
2018-02-24T04:58:03.009Z,18.33
2018-02-24T05:00:30.481Z,18.77
2018-02-24T05:02:57.972Z,17.93
2018-02-24T05:05:25.440Z,18.87
2018-02-24T05:07:52.910Z,19.90
2018-02-24T05:10:21.167Z,19.03
2018-02-24T05:12:48.640Z,17.13
2018-02-24T05:15:16.877Z,18.43
2018-02-24T05:17:44.374Z,20.10
2018-02-24T05:20:12.621Z,18.47
2018-02-24T05:22:40.096Z,19.87
2018-02-24T05:25:07.593Z,19.97
2018-02-24T05:27:35.061Z,18.80
2018-02-24T05:30:02.541Z,19.13
2018-02-24T05:32:30.045Z,18.67
2018-02-24T05:34:58.281Z,19.23
2018-02-24T05:37:25.754Z,18.90
2018-02-24T05:39:53.240Z,20.37
2018-02-24T05:42:21.480Z,18.47
2018-02-24T05:44:49.718Z,20.63
2018-02-24T05:47:17.200Z,19.40
2018-02-24T05:49:44.681Z,19.43
2018-02-24T05:52:12.171Z,19.00
2018-02-24T05:54:40.444Z,19.60
2018-02-24T05:57:08.717Z,19.63
2018-02-24T05:59:36.980Z,20.27
2018-02-24T06:02:05.970Z,20.63
2018-02-24T06:04:33.441Z,18.73
2018-02-24T06:07:00.943Z,19.20
2018-02-24T06:09:28.466Z,19.10
2018-02-24T06:11:56.028Z,18.93
2018-02-24T06:14:24.293Z,19.13
2018-02-24T06:16:54.868Z,20.40
2018-02-24T06:19:30.836Z,19.83
2018-02-24T06:21:59.636Z,18.40
2018-02-24T06:24:27.411Z,16.80
2018-02-24T06:26:55.319Z,20.13
2018-02-24T06:29:23.560Z,18.40
2018-02-24T06:31:51.029Z,17.63
2018-02-24T06:34:25.941Z,20.70
2018-02-24T06:36:53.798Z,19.80
2018-02-24T06:39:22.174Z,20.03
2018-02-24T06:41:49.724Z,21.60
2018-02-24T06:44:17.200Z,20.97
2018-02-24T06:46:44.816Z,20.30
2018-02-24T06:49:13.451Z,19.50
2018-02-24T06:51:40.921Z,20.77
2018-02-24T06:54:08.593Z,20.60
2018-02-24T06:56:36.084Z,20.40
2018-02-24T06:59:04.330Z,20.20
2018-02-24T07:01:31.909Z,20.53
2018-02-24T07:03:59.720Z,23.33
2018-02-24T07:06:27.398Z,19.73
2018-02-24T07:08:55.212Z,19.47
2018-02-24T07:11:23.273Z,20.63
2018-02-24T07:13:50.823Z,23.43
2018-02-24T07:16:18.296Z,22.00
2018-02-24T07:18:45.781Z,20.00
2018-02-24T07:21:14.017Z,18.17
2018-02-24T07:23:41.514Z,22.47
2018-02-24T07:26:09.753Z,22.40
2018-02-24T07:28:37.221Z,22.77
2018-02-24T07:31:04.717Z,20.63
2018-02-24T07:33:33.040Z,21.40
2018-02-24T07:36:00.519Z,21.33
2018-02-24T07:38:28.021Z,18.90
2018-02-24T07:40:55.550Z,18.70
2018-02-24T07:43:23.792Z,18.23
2018-02-24T07:45:51.280Z,18.10
2018-02-24T07:48:18.755Z,19.43
2018-02-24T07:50:46.996Z,19.73
2018-02-24T07:53:14.489Z,18.90
2018-02-24T07:55:42.726Z,17.90
2018-02-24T07:58:10.197Z,17.43
2018-02-24T08:00:37.688Z,19.40
2018-02-24T08:03:05.926Z,19.47
2018-02-24T08:05:33.398Z,19.50
2018-02-24T08:08:00.884Z,19.43
2018-02-24T08:10:29.138Z,19.70
2018-02-24T08:12:56.629Z,21.07
2018-02-24T08:15:24.161Z,19.03
2018-02-24T08:17:52.400Z,19.20
2018-02-24T08:20:19.892Z,19.00
2018-02-24T08:22:47.363Z,20.60
2018-02-24T08:25:15.603Z,19.93
2018-02-24T08:27:43.100Z,19.47
2018-02-24T08:30:11.348Z,18.70
2018-02-24T08:32:38.870Z,21.47
2018-02-24T08:35:06.348Z,18.07
2018-02-24T08:37:33.825Z,18.00
2018-02-24T08:40:01.408Z,19.27
2018-02-24T08:42:29.649Z,18.53
2018-02-24T08:44:57.127Z,18.90
2018-02-24T08:47:24.621Z,18.00
2018-02-24T08:49:52.863Z,18.30
2018-02-24T08:52:21.108Z,17.73
2018-02-24T08:54:48.617Z,19.63
2018-02-24T08:57:16.889Z,18.80
2018-02-24T08:59:45.129Z,19.20
2018-02-24T09:02:12.609Z,17.10
2018-02-24T09:04:40.080Z,19.60
2018-02-24T09:07:07.560Z,18.60
2018-02-24T09:09:35.820Z,16.70
2018-02-24T09:12:03.380Z,18.73
2018-02-24T09:14:30.881Z,18.10
2018-02-24T09:16:58.356Z,16.80
2018-02-24T09:19:25.828Z,18.07
2018-02-24T09:21:53.328Z,16.60
2018-02-24T09:24:21.564Z,20.33
2018-02-24T09:26:49.032Z,18.50
2018-02-24T09:29:18.033Z,16.40
2018-02-24T09:31:45.511Z,17.53
2018-02-24T09:34:13.750Z,17.33
2018-02-24T09:36:41.245Z,16.53
2018-02-24T09:39:09.511Z,16.13
2018-02-24T09:41:37.736Z,15.37
2018-02-24T09:44:05.240Z,15.77
2018-02-24T09:46:33.476Z,15.93
2018-02-24T09:49:00.993Z,15.03
2018-02-24T09:51:29.253Z,17.00
2018-02-24T09:53:58.260Z,18.50
2018-02-24T09:56:25.728Z,17.40
2018-02-24T09:58:53.990Z,16.33
2018-02-24T10:01:21.464Z,18.17
2018-02-24T10:03:49.725Z,17.13
2018-02-24T10:06:17.196Z,16.67
2018-02-24T10:08:45.437Z,16.70
2018-02-24T10:11:12.956Z,15.50
2018-02-24T10:13:40.428Z,16.90
2018-02-24T10:16:07.916Z,17.20
2018-02-24T10:18:35.384Z,17.03
2018-02-24T10:21:03.624Z,17.13
2018-02-24T10:23:31.110Z,18.60
2018-02-24T10:25:58.579Z,17.43
2018-02-24T10:28:26.095Z,15.70
2018-02-24T10:30:53.572Z,16.83
2018-02-24T10:33:21.049Z,15.33
2018-02-24T10:35:48.636Z,16.57
2018-02-24T10:38:16.912Z,17.00
2018-02-24T10:40:45.172Z,17.50
2018-02-24T10:43:12.660Z,18.80
2018-02-24T10:45:40.905Z,16.17
2018-02-24T10:48:08.396Z,17.93
2018-02-24T10:50:36.672Z,19.20
2018-02-24T10:53:04.924Z,24.80
2018-02-24T10:55:32.449Z,17.73
2018-02-24T10:57:59.918Z,18.50
2018-02-24T11:00:27.530Z,17.23
2018-02-24T11:02:55.768Z,20.63
2018-02-24T11:05:23.236Z,19.40
2018-02-24T11:07:50.729Z,15.93
2018-02-24T11:10:18.964Z,17.50
2018-02-24T11:12:46.441Z,14.67
2018-02-24T11:15:14.009Z,17.90
2018-02-24T11:17:42.271Z,17.83
2018-02-24T11:20:09.778Z,14.70
2018-02-24T11:22:37.252Z,17.00
2018-02-24T11:25:04.741Z,16.00
2018-02-24T11:27:32.213Z,15.10
2018-02-24T11:29:59.684Z,16.47
2018-02-24T11:32:27.932Z,17.97
2018-02-24T11:34:55.400Z,16.97
2018-02-24T11:37:22.894Z,16.57
2018-02-24T11:39:51.129Z,16.93
2018-02-24T11:42:18.608Z,16.43
2018-02-24T11:44:46.897Z,15.87
2018-02-24T11:47:15.142Z,17.40
2018-02-24T11:49:42.728Z,17.00
2018-02-24T11:52:11.004Z,18.80
2018-02-24T11:54:38.560Z,18.17
2018-02-24T11:57:06.813Z,17.80
2018-02-24T11:59:34.294Z,18.20
2018-02-24T12:02:01.785Z,18.73
2018-02-24T12:04:29.280Z,18.30
2018-02-24T12:06:56.752Z,17.47
2018-02-24T12:09:24.292Z,20.03
2018-02-24T12:11:51.772Z,17.97
2018-02-24T12:14:19.249Z,17.93
2018-02-24T12:16:46.749Z,20.10
2018-02-24T12:19:14.270Z,19.00
2018-02-24T12:21:42.517Z,20.30
2018-02-24T12:24:10.122Z,18.90
2018-02-24T12:26:38.372Z,20.23
2018-02-24T12:29:05.842Z,17.77
2018-02-24T12:31:34.154Z,19.60
2018-02-24T12:34:02.395Z,17.67
2018-02-24T12:36:30.644Z,20.40
2018-02-24T12:38:58.117Z,22.03
2018-02-24T12:41:25.600Z,22.50
2018-02-24T12:43:53.840Z,22.20
2018-02-24T12:46:21.337Z,25.87
2018-02-24T12:48:49.590Z,24.23
2018-02-24T12:51:17.068Z,21.70
2018-02-24T12:53:45.323Z,24.23
2018-02-24T12:56:12.804Z,24.17
2018-02-24T12:58:41.041Z,45.53
2018-02-24T13:01:10.477Z,22.20
2018-02-24T13:03:38.753Z,25.20
2018-02-24T13:06:06.258Z,23.63
2018-02-24T13:08:33.748Z,24.40
2018-02-24T13:11:01.231Z,23.20
2018-02-24T13:13:28.731Z,25.63
2018-02-24T13:15:56.210Z,23.90
2018-02-24T13:18:23.696Z,24.80
2018-02-24T13:20:51.198Z,23.47
2018-02-24T13:23:18.674Z,22.57
2018-02-24T13:25:46.143Z,22.20
2018-02-24T13:28:13.628Z,25.13
2018-02-24T13:30:41.152Z,23.73
2018-02-24T13:33:08.713Z,24.00
2018-02-24T13:35:36.249Z,26.00
2018-02-24T13:38:03.741Z,25.90
2018-02-24T13:40:31.365Z,21.80
2018-02-24T13:42:59.618Z,22.27
2018-02-24T13:45:27.101Z,24.83
2018-02-24T13:47:55.381Z,23.93
2018-02-24T13:50:23.638Z,22.00
2018-02-24T13:52:51.897Z,21.20
2018-02-24T13:55:19.394Z,23.33
2018-02-24T13:57:47.653Z,25.07
2018-02-24T14:00:15.973Z,24.43
2018-02-24T14:02:43.461Z,27.93
2018-02-24T14:05:11.720Z,37.30
2018-02-24T14:07:39.222Z,24.70
2018-02-24T14:10:06.701Z,22.90
2018-02-24T14:12:34.202Z,24.93
2018-02-24T14:15:01.742Z,25.97
2018-02-24T14:17:29.226Z,23.83
2018-02-24T14:19:56.746Z,21.77
2018-02-24T14:22:24.249Z,23.40
2018-02-24T14:24:51.729Z,23.03
2018-02-24T14:27:19.245Z,22.27
2018-02-24T14:29:46.784Z,21.37
2018-02-24T14:32:14.324Z,22.03
2018-02-24T14:34:42.604Z,24.20
2018-02-24T14:37:10.860Z,21.33
2018-02-24T14:39:39.113Z,23.10
2018-02-24T14:42:06.762Z,22.90
2018-02-24T14:44:34.275Z,23.63
2018-02-24T14:47:02.535Z,22.53
2018-02-24T14:49:30.030Z,21.50
2018-02-24T14:51:58.298Z,22.00
2018-02-24T14:54:26.636Z,21.33
2018-02-24T14:56:54.144Z,20.33
2018-02-24T14:59:21.631Z,24.07
2018-02-24T15:01:49.131Z,21.37
2018-02-24T15:04:18.127Z,20.27
2018-02-24T15:06:47.203Z,23.70
2018-02-24T15:09:14.709Z,20.37
2018-02-24T15:11:43.112Z,26.73
2018-02-24T15:14:10.588Z,24.50
2018-02-24T15:16:38.112Z,26.30
2018-02-24T15:19:05.666Z,23.03
2018-02-24T15:21:34.072Z,24.40
2018-02-24T15:24:01.585Z,23.93
2018-02-24T15:26:29.065Z,23.87
2018-02-24T15:28:57.346Z,26.60
2018-02-24T15:31:24.904Z,19.67
2018-02-24T15:33:53.149Z,23.07
2018-02-24T15:36:20.645Z,26.73
2018-02-24T15:38:48.932Z,23.27
2018-02-24T15:41:16.449Z,23.70
2018-02-24T15:43:44.063Z,21.50
2018-02-24T15:46:11.534Z,23.63
2018-02-24T15:48:39.040Z,22.50
2018-02-24T15:51:07.372Z,24.17
2018-02-24T15:53:34.856Z,23.73
2018-02-24T15:56:02.357Z,23.10
2018-02-24T15:58:30.711Z,22.43
2018-02-24T16:00:58.964Z,23.20
2018-02-24T16:03:26.553Z,24.27
2018-02-24T16:05:54.808Z,23.87
2018-02-24T16:08:22.325Z,23.93
2018-02-24T16:10:49.806Z,26.50
2018-02-24T16:13:17.283Z,23.03
2018-02-24T16:15:44.868Z,25.93
2018-02-24T16:18:13.119Z,23.03
2018-02-24T16:20:40.748Z,23.60
2018-02-24T16:23:08.240Z,23.97
2018-02-24T16:25:35.716Z,22.50
2018-02-24T16:28:03.201Z,21.10
2018-02-24T16:30:31.449Z,23.13
2018-02-24T16:33:00.424Z,21.63
2018-02-24T16:35:27.908Z,25.40
2018-02-24T16:37:55.447Z,23.93
2018-02-24T16:40:22.936Z,23.57
2018-02-24T16:42:51.205Z,23.40
2018-02-24T16:45:19.489Z,23.30
2018-02-24T16:47:47.743Z,24.73
2018-02-24T16:50:15.241Z,26.70
2018-02-24T16:52:43.482Z,27.87
2018-02-24T16:55:10.953Z,25.20
2018-02-24T16:57:39.230Z,25.00
2018-02-24T17:00:06.705Z,26.57
2018-02-24T17:02:37.163Z,24.07
2018-02-24T17:05:07.097Z,24.37
2018-02-24T17:07:34.579Z,25.73
2018-02-24T17:10:02.563Z,25.13
2018-02-24T17:12:32.061Z,25.23
2018-02-24T17:15:02.442Z,23.47
2018-02-24T17:17:29.983Z,27.87
2018-02-24T17:20:01.580Z,26.20
2018-02-24T17:22:33.969Z,25.37
2018-02-24T17:25:11.431Z,26.50
2018-02-24T17:27:44.996Z,25.60
2018-02-24T17:30:15.431Z,25.60
2018-02-24T17:32:43.296Z,27.90
2018-02-24T17:35:15.531Z,25.20
2018-02-24T17:37:46.199Z,23.00
2018-02-24T17:40:15.204Z,24.77
2018-02-24T17:42:42.764Z,25.10
2018-02-24T17:45:10.547Z,26.70
2018-02-24T17:47:41.081Z,24.83
2018-02-24T17:50:09.911Z,26.30
2018-02-24T17:52:37.684Z,26.20
2018-02-24T17:55:09.708Z,29.93
2018-02-24T17:57:39.733Z,26.43
2018-02-24T18:00:10.305Z,27.93
2018-02-24T18:02:44.389Z,25.87
2018-02-24T18:05:13.212Z,25.33
2018-02-24T18:07:43.844Z,26.20
2018-02-24T18:10:13.443Z,27.73
2018-02-24T18:12:44.986Z,28.57
2018-02-24T18:15:12.456Z,25.87
2018-02-24T18:17:42.011Z,25.93
2018-02-24T18:20:12.100Z,28.57
2018-02-24T18:22:42.297Z,30.67
2018-02-24T18:25:13.549Z,28.93
2018-02-24T18:27:43.494Z,30.20
2018-02-24T18:30:11.728Z,28.67
2018-02-24T18:32:39.197Z,25.23
2018-02-24T18:35:06.688Z,26.70
2018-02-24T18:37:34.929Z,23.70
2018-02-24T18:40:02.401Z,25.57
2018-02-24T18:42:29.917Z,29.97
2018-02-24T18:44:57.429Z,28.10
2018-02-24T18:47:25.676Z,25.30
2018-02-24T18:49:53.170Z,25.83
2018-02-24T18:52:21.409Z,25.80
2018-02-24T18:54:48.897Z,27.37
2018-02-24T18:57:17.156Z,26.53
2018-02-24T18:59:44.628Z,25.93
2018-02-24T19:02:12.097Z,28.50
2018-02-24T19:04:40.340Z,28.07
2018-02-24T19:07:07.821Z,26.67
2018-02-24T19:09:35.311Z,28.73
2018-02-24T19:12:02.784Z,27.10
2018-02-24T19:14:30.263Z,27.20
2018-02-24T19:16:57.754Z,28.07
2018-02-24T19:19:26.037Z,27.60
2018-02-24T19:21:54.305Z,27.43
2018-02-24T19:24:21.781Z,30.70
2018-02-24T19:26:50.049Z,34.97
2018-02-24T19:29:17.537Z,29.33
2018-02-24T19:31:45.068Z,32.63
2018-02-24T19:34:12.676Z,29.67
2018-02-24T19:36:40.153Z,29.93
2018-02-24T19:39:07.628Z,27.80
2018-02-24T19:41:35.127Z,30.57
2018-02-24T19:44:03.366Z,28.47
2018-02-24T19:46:30.845Z,28.07
2018-02-24T19:48:58.342Z,28.00
2018-02-24T19:51:25.814Z,26.83
2018-02-24T19:53:53.312Z,26.27
2018-02-24T19:56:20.786Z,28.47
2018-02-24T19:58:49.021Z,25.60
2018-02-24T20:01:17.649Z,26.30
2018-02-24T20:03:45.886Z,26.80
2018-02-24T20:06:13.379Z,46.63
2018-02-24T20:08:41.620Z,39.10
2018-02-24T20:11:09.101Z,28.20
2018-02-24T20:13:38.120Z,29.67
2018-02-24T20:16:06.356Z,30.77
2018-02-24T20:18:33.840Z,29.83
2018-02-24T20:21:02.841Z,30.50
2018-02-24T20:23:31.090Z,32.60
2018-02-24T20:25:58.561Z,33.20
2018-02-24T20:28:26.045Z,34.50
2018-02-24T20:30:54.276Z,31.63
2018-02-24T20:33:21.769Z,32.30
2018-02-24T20:35:50.055Z,34.30
2018-02-24T20:38:18.292Z,33.50
2018-02-24T20:40:45.780Z,36.10
2018-02-24T20:43:14.028Z,35.10
2018-02-24T20:45:41.638Z,34.00
2018-02-24T20:48:09.952Z,32.13
2018-02-24T20:50:37.420Z,32.73
2018-02-24T20:53:04.909Z,32.17
2018-02-24T20:55:32.407Z,36.80
2018-02-24T20:57:59.877Z,34.70
2018-02-24T21:00:27.355Z,32.90
2018-02-24T21:02:54.870Z,32.10
2018-02-24T21:05:23.205Z,29.83
2018-02-24T21:07:50.704Z,42.57
2018-02-24T21:10:18.964Z,36.77
2018-02-24T21:12:47.625Z,32.93
2018-02-24T21:15:15.219Z,30.73
2018-02-24T21:17:43.484Z,29.67
2018-02-24T21:20:11.051Z,31.33
2018-02-24T21:22:39.329Z,35.20
2018-02-24T21:25:07.612Z,32.10
2018-02-24T21:27:35.856Z,28.07
2018-02-24T21:30:03.339Z,32.50
2018-02-24T21:32:30.904Z,31.90
2018-02-24T21:34:59.162Z,32.30
2018-02-24T21:37:26.638Z,32.20
2018-02-24T21:39:54.928Z,39.93
2018-02-24T21:42:23.190Z,34.80
2018-02-24T21:44:51.449Z,30.90
2018-02-24T21:47:18.917Z,33.40
2018-02-24T21:49:46.492Z,29.90
2018-02-24T21:52:14.806Z,29.63
2018-02-24T21:54:43.184Z,31.73
2018-02-24T21:57:10.693Z,30.73
2018-02-24T21:59:42.488Z,28.77
2018-02-24T22:02:11.477Z,30.37
2018-02-24T22:04:39.921Z,29.17
2018-02-24T22:07:07.606Z,30.67
2018-02-24T22:09:36.332Z,30.87
2018-02-24T22:12:04.155Z,32.93
2018-02-24T22:14:32.392Z,31.27
2018-02-24T22:17:00.012Z,31.37
2018-02-24T22:19:28.324Z,34.57
2018-02-24T22:21:55.837Z,34.67
2018-02-24T22:24:24.113Z,31.50
2018-02-24T22:26:52.372Z,34.93
2018-02-24T22:29:19.865Z,41.37
2018-02-24T22:31:48.201Z,39.17
2018-02-24T22:34:15.673Z,30.30
2018-02-24T22:36:43.223Z,33.87
2018-02-24T22:39:10.734Z,31.60
2018-02-24T22:41:39.157Z,32.40
2018-02-24T22:44:06.655Z,33.50
2018-02-24T22:46:34.901Z,31.90
2018-02-24T22:49:03.513Z,31.57
2018-02-24T22:51:31.761Z,35.17
2018-02-24T22:53:59.233Z,35.20
2018-02-24T22:56:26.805Z,32.70
2018-02-24T22:58:55.049Z,36.07
2018-02-24T23:01:22.520Z,32.33
2018-02-24T23:03:50.018Z,32.87
2018-02-24T23:06:17.497Z,34.27
2018-02-24T23:08:45.014Z,30.60
2018-02-24T23:11:12.508Z,32.10
2018-02-24T23:13:39.981Z,35.13
2018-02-24T23:16:07.459Z,38.10
2018-02-24T23:18:34.955Z,35.07
2018-02-24T23:21:03.205Z,35.70
2018-02-24T23:23:30.684Z,34.60
2018-02-24T23:25:58.173Z,31.50
2018-02-24T23:28:25.645Z,33.90
2018-02-24T23:30:54.100Z,32.20
2018-02-24T23:33:22.362Z,33.47
2018-02-24T23:35:50.612Z,35.70
2018-02-24T23:38:18.141Z,36.80
2018-02-24T23:40:46.779Z,36.53
2018-02-24T23:43:14.249Z,38.90
2018-02-24T23:45:42.488Z,38.10
2018-02-24T23:48:09.981Z,38.47
2018-02-24T23:50:38.221Z,35.80
2018-02-24T23:53:05.696Z,38.60
2018-02-24T23:55:33.191Z,39.33
2018-02-24T23:58:01.429Z,40.07
